Time;durP1;ratioP1;P1;durP2;ratioP2;P2;SDS_P1;SDS_P2;PMS_P1;PMS_P2;Temp;Humidity;BMP_temperature;BMP_pressure;BME280_temperature;BME280_humidity;BME280_pressure;Samples;Min_cycle;Max_cycle;Signal;HPM_P1;HPM_P2
2022/05/16 00:02:24;;;;;;;9.60;4.03;;;12.10;99.90;;;;;;5107865;28;20427;-76
2022/05/16 00:04:51;;;;;;;7.43;3.45;;;12.50;99.90;;;;;;5126657;28;20164;-76
2022/05/16 00:07:18;;;;;;;11.40;3.28;;;13.40;99.90;;;;;;5108546;28;20401;-76
2022/05/16 00:09:44;;;;;;;5.72;3.22;;;12.20;99.90;;;;;;5126385;27;20039;-76
2022/05/16 00:12:12;;;;;;;11.15;3.42;;;12.30;99.90;;;;;;5095535;27;20051;-77
2022/05/16 00:14:39;;;;;;;13.98;4.00;;;12.40;99.90;;;;;;5130068;27;20035;-76
2022/05/16 00:17:05;;;;;;;9.32;3.95;;;12.40;99.90;;;;;;5112413;27;20047;-76
2022/05/16 00:19:31;;;;;;;12.40;3.85;;;12.80;99.90;;;;;;5129548;27;20103;-77
2022/05/16 00:21:57;;;;;;;11.75;3.78;;;12.50;99.90;;;;;;5111734;27;20131;-77
2022/05/16 00:24:28;;;;;;;7.75;3.30;;;12.70;99.90;;;;;;5130460;27;20043;-76
2022/05/16 00:26:55;;;;;;;6.65;3.25;;;12.60;99.90;;;;;;5078209;27;20044;-76
2022/05/16 00:29:21;;;;;;;10.07;3.28;;;12.60;99.90;;;;;;5112493;27;20051;-77
2022/05/16 00:31:47;;;;;;;8.90;3.63;;;12.60;99.90;;;;;;5111376;27;20122;-77
2022/05/16 00:34:13;;;;;;;6.10;2.92;;;12.60;99.90;;;;;;5130731;27;20122;-77
2022/05/16 00:36:39;;;;;;;8.60;3.25;;;12.60;99.90;;;;;;5110959;27;20042;-76
2022/05/16 00:39:05;;;;;;;10.18;3.40;;;12.60;99.90;;;;;;5094474;27;20044;-76
2022/05/16 00:41:31;;;;;;;7.55;3.30;;;12.60;99.90;;;;;;5094514;27;20047;-76
2022/05/16 00:43:59;;;;;;;8.80;3.67;;;12.60;99.90;;;;;;5110936;27;20078;-76
2022/05/16 00:46:30;;;;;;;4.43;2.60;;;12.70;99.90;;;;;;5094919;27;20055;-75
2022/05/16 00:48:56;;;;;;;7.35;2.83;;;13.60;99.90;;;;;;5093913;27;20478;-75
2022/05/16 00:51:24;;;;;;;10.10;2.97;;;12.90;99.90;;;;;;5130007;27;20047;-77
2022/05/16 00:53:58;;;;;;;9.00;3.42;;;12.60;99.90;;;;;;5094077;27;20390;-76
2022/05/16 00:56:26;;;;;;;6.40;3.28;;;12.60;99.90;;;;;;5129817;27;20049;-76
2022/05/16 00:58:52;;;;;;;7.95;2.80;;;12.80;99.90;;;;;;5130327;27;20047;-76
2022/05/16 01:06:48;;;;;;;8.85;2.47;;;12.50;99.90;;;;;;5129245;27;20050;-76
2022/05/16 01:09:14;;;;;;;5.53;3.05;;;12.70;99.90;;;;;;5111115;27;20050;-76
2022/05/16 01:11:40;;;;;;;6.93;2.63;;;12.60;99.90;;;;;;5094301;27;20039;-76
2022/05/16 01:14:06;;;;;;;5.65;2.33;;;12.80;99.90;;;;;;5110343;27;20051;-77
2022/05/16 01:16:32;;;;;;;4.80;2.40;;;12.60;99.90;;;;;;5094560;27;20424;-77
2022/05/16 01:18:58;;;;;;;6.15;2.47;;;12.50;99.90;;;;;;5110094;27;20062;-76
2022/05/16 01:21:34;;;;;;;8.80;2.70;;;12.50;99.90;;;;;;5094280;27;20047;-76
2022/05/16 01:24:06;;;;;;;5.57;2.15;;;12.50;99.90;;;;;;5110370;27;20043;-76
2022/05/16 01:26:33;;;;;;;4.10;2.35;;;12.50;99.90;;;;;;5093838;27;20397;-76
2022/05/16 01:28:59;;;;;;;3.50;1.88;;;13.40;99.90;;;;;;5111513;27;20039;-76
2022/05/16 01:31:25;;;;;;;4.70;1.95;;;12.40;99.90;;;;;;5109616;27;20096;-76
2022/05/16 01:33:51;;;;;;;3.15;1.67;;;12.40;99.90;;;;;;5129459;27;20051;-76
2022/05/16 01:36:17;;;;;;;3.83;1.73;;;12.40;99.90;;;;;;5093052;27;20043;-77
2022/05/16 01:38:43;;;;;;;5.18;1.83;;;12.40;99.90;;;;;;5110931;27;20050;-77
2022/05/16 01:41:16;;;;;;;3.42;1.63;;;12.40;99.90;;;;;;5093751;27;20043;-76
2022/05/16 01:43:46;;;;;;;6.55;1.85;;;12.50;99.90;;;;;;5110096;27;20455;-76
2022/05/16 01:46:16;;;;;;;3.80;1.75;;;12.70;99.90;;;;;;5129916;27;20443;-77
2022/05/16 01:48:43;;;;;;;2.35;1.20;;;12.60;99.90;;;;;;5109937;27;20047;-77
2022/05/16 01:51:10;;;;;;;4.07;1.02;;;12.40;99.90;;;;;;5129232;27;20051;-76
2022/05/16 01:53:38;;;;;;;2.78;1.30;;;12.80;99.90;;;;;;5092832;27;20043;-77
2022/05/16 01:56:04;;;;;;;3.95;1.52;;;12.40;99.90;;;;;;5109812;27;20512;-77
2022/05/16 01:58:30;;;;;;;4.40;1.50;;;13.80;99.90;;;;;;5129163;27;20043;-77
2022/05/16 02:00:56;;;;;;;3.20;1.05;;;12.40;99.90;;;;;;5128159;27;20039;-76
2022/05/16 02:03:22;;;;;;;2.80;1.05;;;12.40;99.90;;;;;;5129456;27;20389;-76
2022/05/16 02:05:48;;;;;;;3.83;1.50;;;12.40;99.90;;;;;;5109246;27;20087;-77
2022/05/16 02:08:14;;;;;;;4.97;1.55;;;12.40;99.90;;;;;;5128762;27;20042;-77
2022/05/16 02:10:42;;;;;;;3.70;1.10;;;12.40;99.90;;;;;;5128039;27;20394;-77
2022/05/16 02:13:08;;;;;;;4.45;1.65;;;12.40;99.90;;;;;;5128067;27;20122;-77
2022/05/16 02:15:37;;;;;;;2.75;1.08;;;12.40;99.90;;;;;;5128467;27;20122;-76
2022/05/16 02:18:04;;;;;;;3.90;1.08;;;12.40;99.90;;;;;;5127450;27;20048;-77
2022/05/16 02:20:30;;;;;;;2.42;1.38;;;12.40;99.90;;;;;;5129141;27;20047;-76
2022/05/16 02:25:45;;;;;;;3.28;1.60;;;12.30;99.90;;;;;;5128389;27;20107;-76
2022/05/16 02:28:14;;;;;;;2.75;1.15;;;12.30;99.90;;;;;;5092772;27;20043;-77
2022/05/16 02:30:41;;;;;;;3.92;1.00;;;12.30;99.90;;;;;;5109648;27;20395;-76
2022/05/16 02:33:08;;;;;;;11.05;1.60;;;12.30;99.90;;;;;;5128451;27;20118;-76
2022/05/16 02:35:34;;;;;;;1.70;1.10;;;12.30;99.90;;;;;;5091407;27;20058;-76
2022/05/16 02:38:01;;;;;;;2.78;1.30;;;12.30;99.90;;;;;;5109607;27;20035;-76
2022/05/16 02:40:29;;;;;;;3.38;1.05;;;12.30;99.90;;;;;;5127304;27;20047;-77
2022/05/16 02:42:55;;;;;;;4.05;1.17;;;12.30;99.90;;;;;;5127916;27;20398;-77
2022/05/16 02:45:21;;;;;;;3.72;1.10;;;12.30;99.90;;;;;;5109160;27;20039;-75
2022/05/16 02:47:47;;;;;;;5.25;1.52;;;12.20;99.90;;;;;;5127337;27;20042;-76
2022/05/16 02:50:13;;;;;;;3.95;1.13;;;12.20;99.90;;;;;;5110137;27;20054;-76
2022/05/16 02:52:39;;;;;;;2.75;1.00;;;12.20;99.90;;;;;;5108843;27;20569;-76
2022/05/16 02:55:06;;;;;;;4.07;1.40;;;12.20;99.90;;;;;;5109498;27;20086;-76
2022/05/16 02:57:32;;;;;;;3.63;1.40;;;12.20;99.90;;;;;;5108269;27;20498;-76
2022/05/16 02:59:59;;;;;;;3.63;1.20;;;12.20;99.90;;;;;;5092428;27;20047;-76
2022/05/16 03:02:25;;;;;;;1.90;1.17;;;12.20;99.90;;;;;;5127242;27;20575;-76
2022/05/16 03:04:51;;;;;;;2.33;0.98;;;12.40;99.90;;;;;;5091570;27;20487;-76
2022/05/16 03:07:17;;;;;;;6.43;0.90;;;13.50;99.90;;;;;;5109560;27;20054;-76
2022/05/16 03:09:43;;;;;;;5.80;1.25;;;12.10;99.90;;;;;;5092423;27;20044;-76
2022/05/16 03:12:09;;;;;;;2.65;1.10;;;12.10;99.90;;;;;;5092625;27;20043;-76
2022/05/16 03:14:35;;;;;;;6.18;1.65;;;12.10;99.90;;;;;;5092070;27;20043;-77
2022/05/16 03:17:03;;;;;;;6.50;1.27;;;12.10;99.90;;;;;;5127900;27;20042;-75
2022/05/16 03:19:30;;;;;;;4.10;1.15;;;12.00;99.90;;;;;;5127000;27;20514;-76
2022/05/16 03:21:56;;;;;;;2.80;1.00;;;12.00;99.90;;;;;;5108716;27;20450;-76
2022/05/16 03:24:22;;;;;;;2.05;1.05;;;12.00;99.90;;;;;;5128004;27;20131;-76
2022/05/16 03:26:48;;;;;;;3.13;1.20;;;12.00;99.90;;;;;;5107831;27;20041;-77
2022/05/16 03:29:14;;;;;;;8.23;1.33;;;12.00;99.90;;;;;;5108696;27;20465;-76
2022/05/16 03:31:43;;;;;;;2.47;1.05;;;12.00;99.90;;;;;;5091126;28;20076;-76
2022/05/16 03:34:11;;;;;;;3.28;1.40;;;12.80;99.90;;;;;;5108548;28;20043;-76
2022/05/16 03:36:38;;;;;;;3.38;1.52;;;12.00;99.90;;;;;;5091496;28;20459;-76
2022/05/16 03:41:50;;;;;;;4.03;1.35;;;11.90;99.90;;;;;;5127657;28;20046;-76
2022/05/16 03:44:15;;;;;;;3.05;1.23;;;11.90;99.90;;;;;;5126466;28;20126;-76
2022/05/16 03:46:41;;;;;;;5.50;1.30;;;11.90;99.90;;;;;;5130329;27;20118;-75
2022/05/16 03:49:07;;;;;;;2.05;1.00;;;13.10;99.90;;;;;;5112301;27;20075;-76
2022/05/16 03:51:33;;;;;;;5.22;1.25;;;11.80;99.90;;;;;;5131193;27;20043;-77
2022/05/16 03:53:59;;;;;;;7.68;1.45;;;11.80;99.90;;;;;;5112924;27;20039;-76
2022/05/16 03:56:27;;;;;;;7.15;1.40;;;11.80;99.90;;;;;;5094797;27;20126;-76
2022/05/16 03:58:55;;;;;;;1.92;1.17;;;11.80;99.90;;;;;;5095775;27;20042;-76
2022/05/16 04:01:22;;;;;;;2.40;0.70;;;12.30;99.90;;;;;;5094731;27;20035;-75
2022/05/16 04:03:48;;;;;;;4.20;1.20;;;11.80;99.90;;;;;;5095844;27;20078;-76
2022/05/16 04:06:14;;;;;;;2.40;1.40;;;12.00;99.90;;;;;;5111915;27;20143;-76
2022/05/16 04:08:42;;;;;;;2.97;1.23;;;11.80;99.90;;;;;;5112031;27;20058;-76
2022/05/16 04:11:08;;;;;;;3.13;1.25;;;11.80;99.90;;;;;;5112857;27;20043;-77
2022/05/16 04:13:35;;;;;;;2.95;1.10;;;11.90;99.90;;;;;;5111573;27;20486;-77
2022/05/16 04:16:01;;;;;;;3.00;0.90;;;11.90;99.90;;;;;;5112156;27;20047;-76
2022/05/16 04:18:27;;;;;;;6.38;1.23;;;11.90;99.90;;;;;;5129743;27;20410;-78
2022/05/16 04:20:52;;;;;;;2.63;1.20;;;11.90;99.90;;;;;;5130800;27;20044;-76
2022/05/16 04:23:18;;;;;;;4.03;1.30;;;11.90;99.90;;;;;;5130317;27;20043;-75
2022/05/16 04:25:44;;;;;;;6.68;1.80;;;12.00;99.90;;;;;;5112283;27;20043;-76
2022/05/16 04:28:12;;;;;;;3.35;1.30;;;12.00;99.90;;;;;;5112028;27;20138;-75
2022/05/16 04:30:38;;;;;;;1.83;1.10;;;12.00;99.90;;;;;;5111470;27;20414;-76
2022/05/16 04:33:05;;;;;;;3.10;1.23;;;12.10;99.90;;;;;;5112269;27;20043;-75
2022/05/16 04:35:31;;;;;;;3.72;1.02;;;12.10;99.90;;;;;;5110943;27;20058;-75
2022/05/16 04:37:57;;;;;;;3.15;1.25;;;12.10;99.90;;;;;;5094912;27;20126;-79
2022/05/16 04:40:24;;;;;;;2.60;1.15;;;12.30;99.90;;;;;;5077393;27;20089;-78
2022/05/16 04:42:50;;;;;;;3.72;1.20;;;12.20;99.90;;;;;;5111757;27;20054;-79
2022/05/16 04:45:24;;;;;;;3.40;1.27;;;12.80;99.90;;;;;;5111979;27;20051;-78
2022/05/16 04:47:53;;;;;;;1.85;1.20;;;12.30;99.90;;;;;;5094452;27;20043;-78
2022/05/16 04:50:32;;;;;;;5.28;1.15;;;12.80;99.90;;;;;;5111997;27;20406;-79
2022/05/16 04:52:58;;;;;;;2.65;1.30;;;12.40;99.90;;;;;;5093841;27;20047;-79
2022/05/16 04:55:24;;;;;;;2.92;1.00;;;12.50;99.90;;;;;;5129748;27;20046;-80
2022/05/16 04:57:50;;;;;;;6.32;1.33;;;12.50;99.90;;;;;;5110653;27;20047;-79
2022/05/16 05:00:18;;;;;;;3.08;1.02;;;12.60;99.90;;;;;;5111309;27;20129;-78
2022/05/16 05:02:44;;;;;;;3.38;1.30;;;12.70;99.90;;;;;;5130921;27;20049;-79
2022/05/16 05:05:10;;;;;;;2.63;1.20;;;12.80;99.90;;;;;;5131558;27;20047;-78
2022/05/16 05:07:37;;;;;;;2.22;1.00;;;12.90;99.90;;;;;;5133463;27;20051;-78
2022/05/16 05:15:38;;;;;;;4.35;1.00;;;13.00;99.90;;;;;;5111625;27;20065;-78
2022/05/16 05:18:04;;;;;;;4.63;1.20;;;13.10;99.90;;;;;;5092796;27;20131;-75
2022/05/16 05:20:32;;;;;;;2.78;1.00;;;13.20;99.90;;;;;;5077461;27;20474;-76
2022/05/16 05:23:00;;;;;;;3.20;1.10;;;13.30;99.90;;;;;;5093521;27;20043;-77
2022/05/16 05:25:26;;;;;;;2.67;1.25;;;13.30;99.90;;;;;;5093987;27;20526;-77
2022/05/16 05:27:53;;;;;;;2.65;1.13;;;13.30;99.90;;;;;;5061254;27;20129;-76
2022/05/16 05:30:25;;;;;;;3.28;1.42;;;13.40;99.90;;;;;;5092959;27;20039;-77
2022/05/16 05:32:52;;;;;;;3.78;1.40;;;13.40;99.90;;;;;;5111126;27;20065;-77
2022/05/16 05:35:17;;;;;;;2.80;1.15;;;13.40;99.90;;;;;;5109946;27;20046;-76
2022/05/16 05:37:43;;;;;;;3.83;1.13;;;13.40;99.90;;;;;;5093403;27;20044;-76
2022/05/16 05:40:11;;;;;;;2.88;1.52;;;13.40;99.90;;;;;;5093019;27;20096;-77
2022/05/16 05:42:39;;;;;;;3.20;1.33;;;13.40;99.90;;;;;;5110245;27;20073;-78
2022/05/16 05:45:07;;;;;;;5.60;1.50;;;13.50;99.90;;;;;;5093992;27;20386;-78
2022/05/16 05:47:33;;;;;;;4.50;1.48;;;13.60;99.90;;;;;;5092455;27;20096;-78
2022/05/16 05:50:02;;;;;;;3.60;1.45;;;13.60;99.90;;;;;;5110251;27;20047;-78
2022/05/16 05:52:32;;;;;;;5.43;1.48;;;13.70;99.90;;;;;;5110093;27;20035;-79
2022/05/16 05:54:57;;;;;;;2.72;1.35;;;13.80;99.90;;;;;;5093445;27;20677;-77
2022/05/16 05:57:25;;;;;;;4.72;1.27;;;13.90;99.90;;;;;;5109841;27;20035;-77
2022/05/16 05:59:52;;;;;;;2.90;1.50;;;14.00;99.90;;;;;;5076024;27;20095;-78
2022/05/16 06:02:18;;;;;;;3.25;1.30;;;14.10;99.90;;;;;;5110387;27;20039;-77
2022/05/16 06:04:45;;;;;;;5.40;1.70;;;14.20;99.90;;;;;;5109037;27;20054;-78
2022/05/16 06:07:11;;;;;;;6.07;1.50;;;14.20;99.90;;;;;;5093192;27;20046;-77
2022/05/16 06:09:37;;;;;;;4.93;1.52;;;14.20;99.90;;;;;;5109076;27;20390;-78
2022/05/16 06:12:05;;;;;;;3.78;1.17;;;14.20;99.90;;;;;;5109849;27;20582;-78
2022/05/16 06:14:31;;;;;;;4.70;1.70;;;14.20;99.90;;;;;;5128207;27;20039;-78
2022/05/16 06:16:57;;;;;;;2.63;1.10;;;14.20;99.90;;;;;;5109225;27;20067;-78
2022/05/16 06:19:23;;;;;;;5.90;1.40;;;14.20;99.90;;;;;;5128374;27;20082;-78
2022/05/16 06:21:49;;;;;;;6.57;1.60;;;14.30;99.90;;;;;;5109607;27;20062;-78
2022/05/16 06:27:00;;;;;;;7.13;1.38;;;14.40;99.90;;;;;;5109295;27;20490;-76
2022/05/16 06:29:26;;;;;;;4.10;1.27;;;14.40;99.90;;;;;;5127683;27;20043;-77
2022/05/16 06:31:53;;;;;;;3.67;1.50;;;14.40;99.90;;;;;;5092655;27;20035;-76
2022/05/16 06:34:19;;;;;;;2.83;1.40;;;14.40;99.90;;;;;;5127444;27;20096;-78
2022/05/16 06:36:46;;;;;;;5.30;1.20;;;14.50;99.90;;;;;;5092546;27;20047;-77
2022/05/16 06:39:12;;;;;;;4.00;1.42;;;14.60;99.90;;;;;;5109104;27;20046;-77
2022/05/16 06:41:38;;;;;;;2.17;1.20;;;14.70;99.90;;;;;;5109772;27;20487;-77
2022/05/16 06:44:04;;;;;;;6.93;1.30;;;14.80;99.90;;;;;;5109360;27;20347;-77
2022/05/16 06:46:29;;;;;;;6.40;1.67;;;13.80;99.90;;;;;;5109402;27;20039;-77
2022/05/16 06:48:55;;;;;;;6.47;2.22;;;15.20;99.90;;;;;;5076385;27;20068;-76
2022/05/16 06:51:21;;;;;;;5.95;1.60;;;15.40;99.90;;;;;;5109815;27;20462;-76
2022/05/16 06:53:47;;;;;;;5.68;1.50;;;15.50;99.90;;;;;;5093499;27;20046;-77
2022/05/16 06:56:13;;;;;;;4.60;1.60;;;15.20;99.90;;;;;;5128162;27;20039;-77
2022/05/16 06:58:39;;;;;;;4.82;1.58;;;15.80;99.90;;;;;;5109714;27;20054;-77
2022/05/16 07:01:05;;;;;;;3.72;1.10;;;15.90;99.90;;;;;;5108786;27;20047;-77
2022/05/16 07:03:32;;;;;;;7.55;1.40;;;16.00;99.90;;;;;;5127240;27;20043;-77
2022/05/16 07:05:58;;;;;;;3.53;1.20;;;16.10;99.90;;;;;;5092464;27;20388;-77
2022/05/16 07:08:24;;;;;;;7.93;1.80;;;16.30;99.90;;;;;;5108601;27;20216;-78
2022/05/16 07:10:51;;;;;;;3.65;1.27;;;16.50;99.90;;;;;;5109527;27;20418;-77
2022/05/16 07:13:17;;;;;;;4.13;1.58;;;16.60;99.90;;;;;;5108526;27;20069;-76
2022/05/16 07:15:43;;;;;;;3.47;1.30;;;16.80;99.90;;;;;;5058486;27;20574;-75
2022/05/16 07:18:09;;;;;;;3.83;1.65;;;16.90;99.90;;;;;;5126355;27;20172;-76
2022/05/16 07:20:35;;;;;;;11.98;1.42;;;17.00;99.90;;;;;;5090564;28;20047;-77
2022/05/16 07:23:02;;;;;;;4.20;1.20;;;17.00;99.90;;;;;;5092183;27;20039;-76
2022/05/16 07:25:29;;;;;;;4.43;1.60;;;17.10;99.90;;;;;;5108253;27;20051;-77
2022/05/16 07:27:59;;;;;;;8.35;2.13;;;17.20;99.90;;;;;;5092407;28;20047;-76
2022/05/16 07:30:43;;;;;;;3.15;1.40;;;17.30;99.90;;;;;;5126388;27;20047;-76
2022/05/16 07:33:08;;;;;;;6.13;1.70;;;17.30;99.90;;;;;;5090894;28;20124;-76
2022/05/16 07:35:35;;;;;;;4.13;1.30;;;17.40;99.90;;;;;;5107894;28;20059;-77
2022/05/16 07:38:01;;;;;;;6.43;1.40;;;17.50;99.90;;;;;;5126700;28;20352;-77
2022/05/16 07:40:31;;;;;;;2.22;0.98;;;17.70;99.90;;;;;;5108715;28;20039;-77
2022/05/16 07:42:56;;;;;;;9.43;1.60;;;18.00;99.90;;;;;;5108593;28;20484;-77
2022/05/16 07:45:23;;;;;;;5.82;1.85;;;18.20;99.90;;;;;;5091565;28;20043;-77
2022/05/16 07:47:49;;;;;;;5.05;1.63;;;18.50;99.90;;;;;;5107935;28;20458;-77
2022/05/16 07:50:16;;;;;;;7.40;1.40;;;18.50;99.90;;;;;;5108532;28;20405;-78
2022/05/16 07:52:47;;;;;;;6.50;1.75;;;18.70;99.90;;;;;;5091496;28;20662;-77
2022/05/16 07:55:13;;;;;;;3.90;1.15;;;18.80;99.90;;;;;;5091180;28;20118;-77
2022/05/16 07:57:39;;;;;;;5.57;1.42;;;18.90;99.90;;;;;;5127386;28;20043;-77
2022/05/16 08:00:06;;;;;;;4.43;1.05;;;18.90;99.90;;;;;;5107948;28;20058;-76
2022/05/16 08:02:31;;;;;;;5.30;1.48;;;19.00;99.90;;;;;;5091748;28;20383;-78
2022/05/16 08:04:57;;;;;;;3.28;1.30;;;19.10;99.90;;;;;;5107924;28;20054;-76
2022/05/16 08:07:23;;;;;;;4.80;1.60;;;19.20;99.90;;;;;;5108567;28;20054;-77
2022/05/16 08:12:37;;;;;;;5.00;1.17;;;19.50;99.90;;;;;;5096412;28;20122;-77
2022/05/16 08:15:04;;;;;;;6.43;1.50;;;19.60;99.90;;;;;;5108472;28;20126;-78
2022/05/16 08:17:30;;;;;;;5.70;1.67;;;19.80;99.90;;;;;;5108041;28;20039;-78
2022/05/16 08:19:56;;;;;;;6.80;1.33;;;19.90;99.90;;;;;;5126684;28;20047;-78
2022/05/16 08:22:31;;;;;;;5.85;1.73;;;20.00;99.90;;;;;;5126149;28;20046;-77
2022/05/16 08:24:57;;;;;;;5.50;1.13;;;20.20;99.90;;;;;;5090951;28;20580;-77
2022/05/16 08:27:23;;;;;;;4.35;1.42;;;20.40;99.90;;;;;;5108626;28;20051;-77
2022/05/16 08:29:49;;;;;;;3.60;1.77;;;20.70;99.80;;;;;;5126329;28;20039;-78
2022/05/16 08:32:16;;;;;;;6.22;1.40;;;20.90;99.00;;;;;;5129280;27;20138;-78
2022/05/16 08:34:44;;;;;;;4.97;1.15;;;21.10;98.40;;;;;;5094221;27;20509;-78
2022/05/16 08:40:03;;;;;;;7.18;1.33;;;21.60;97.70;;;;;;5130485;27;20050;-78
2022/05/16 08:42:47;;;;;;;7.90;1.40;;;21.90;97.50;;;;;;5095365;27;20066;-78
2022/05/16 08:45:33;;;;;;;3.90;1.33;;;22.10;95.30;;;;;;5112394;27;20147;-78
2022/05/16 08:48:22;;;;;;;6.32;1.70;;;22.20;94.90;;;;;;5095811;27;20115;-79
2022/05/16 08:51:04;;;;;;;5.65;1.45;;;22.30;93.10;;;;;;5112770;27;20050;-78
2022/05/16 08:53:39;;;;;;;4.80;1.35;;;22.40;93.90;;;;;;5111940;27;20047;-78
2022/05/16 08:56:08;;;;;;;6.47;1.80;;;22.50;92.00;;;;;;5110921;27;20086;-79
2022/05/16 08:58:46;;;;;;;4.82;1.15;;;22.60;93.80;;;;;;5129456;27;20498;-79
2022/05/16 09:01:18;;;;;;;3.55;1.45;;;22.70;93.10;;;;;;5129597;27;20051;-78
2022/05/16 09:04:16;;;;;;;4.57;1.58;;;22.60;93.50;;;;;;5111298;27;20447;-78
2022/05/16 09:07:01;;;;;;;6.75;1.15;;;22.70;88.60;;;;;;5129999;27;20444;-77
2022/05/16 09:09:41;;;;;;;8.38;2.55;;;22.70;83.60;;;;;;5111152;27;20093;-78
2022/05/16 09:12:23;;;;;;;6.50;1.80;;;22.80;90.70;;;;;;5129265;27;20701;-78
2022/05/16 09:15:20;;;;;;;6.30;1.73;;;22.80;90.30;;;;;;5094651;27;20124;-78
2022/05/16 09:18:07;;;;;;;6.38;2.10;;;22.90;88.40;;;;;;5129133;27;20083;-78
2022/05/16 09:20:51;;;;;;;5.25;1.42;;;22.90;89.40;;;;;;5111070;27;20122;-78
2022/05/16 09:23:16;;;;;;;5.68;1.30;;;22.90;92.40;;;;;;5129955;27;20520;-78
2022/05/16 09:25:57;;;;;;;12.35;1.85;;;23.00;92.50;;;;;;5129223;27;20047;-78
2022/05/16 09:28:37;;;;;;;5.32;1.40;;;23.00;92.40;;;;;;5111110;27;20047;-78
2022/05/16 09:31:26;;;;;;;5.10;1.65;;;23.00;90.80;;;;;;5111315;27;20405;-78
2022/05/16 09:33:55;;;;;;;6.97;1.75;;;22.90;81.90;;;;;;5110728;27;20070;-78
2022/05/16 09:36:34;;;;;;;7.43;1.17;;;22.80;89.50;;;;;;5110752;27;20043;-78
2022/05/16 09:39:00;;;;;;;12.45;1.40;;;22.70;89.50;;;;;;5128893;27;20035;-76
2022/05/16 09:41:42;;;;;;;5.47;1.23;;;22.70;90.60;;;;;;5128846;27;20039;-78
2022/05/16 09:44:28;;;;;;;8.45;1.33;;;22.80;85.70;;;;;;5128551;27;20096;-78
2022/05/16 09:47:15;;;;;;;4.45;1.35;;;22.90;87.00;;;;;;5109656;27;20039;-78
2022/05/16 09:49:42;;;;;;;7.40;1.80;;;22.90;83.70;;;;;;5129273;27;20092;-78
2022/05/16 09:52:19;;;;;;;4.70;1.50;;;22.90;88.90;;;;;;5110489;27;20043;-76
2022/05/16 09:55:03;;;;;;;5.28;1.38;;;23.70;87.10;;;;;;5109911;27;20086;-79
2022/05/16 09:57:37;;;;;;;4.50;1.73;;;23.20;81.80;;;;;;5110551;27;20767;-78
2022/05/16 10:00:40;;;;;;;3.88;1.50;;;23.50;87.10;;;;;;5109201;27;20047;-77
2022/05/16 10:03:35;;;;;;;4.85;1.35;;;23.70;74.70;;;;;;5124537;27;20051;-77
2022/05/16 10:06:08;;;;;;;5.10;1.45;;;23.80;72.40;;;;;;5088875;27;20055;-78
2022/05/16 10:08:37;;;;;;;7.40;1.77;;;23.90;79.80;;;;;;5109554;27;20081;-77
2022/05/16 10:11:07;;;;;;;7.63;1.40;;;24.00;83.10;;;;;;5128358;27;20050;-77
2022/05/16 10:13:34;;;;;;;5.95;1.40;;;24.30;80.80;;;;;;5093407;27;20039;-77
2022/05/16 10:16:05;;;;;;;9.63;1.90;;;24.40;78.40;;;;;;5128375;27;20451;-78
2022/05/16 10:18:33;;;;;;;5.15;1.38;;;24.80;74.90;;;;;;5110316;27;20455;-77
2022/05/16 10:21:06;;;;;;;5.68;1.33;;;25.10;72.80;;;;;;5127611;27;20494;-77
2022/05/16 10:23:39;;;;;;;5.40;1.60;;;25.30;67.40;;;;;;5128561;27;20042;-77
2022/05/16 10:26:09;;;;;;;5.95;1.60;;;25.40;63.70;;;;;;5127608;27;20054;-77
2022/05/16 10:28:43;;;;;;;4.85;1.45;;;25.40;63.20;;;;;;5109323;27;20057;-77
2022/05/16 10:34:09;;;;;;;5.70;1.83;;;25.80;60.20;;;;;;5109491;27;20104;-77
2022/05/16 10:36:36;;;;;;;8.00;2.13;;;25.90;57.20;;;;;;5127903;27;20085;-77
2022/05/16 10:39:04;;;;;;;10.45;1.45;;;25.80;58.80;;;;;;5127470;27;20486;-76
2022/05/16 10:41:45;;;;;;;8.75;2.03;;;25.70;58.30;;;;;;5109294;27;20490;-77
2022/05/16 10:44:11;;;;;;;5.28;1.67;;;25.70;56.90;;;;;;5128484;27;20124;-77
2022/05/16 10:46:42;;;;;;;4.78;1.40;;;25.60;58.10;;;;;;5110321;27;20386;-77
2022/05/16 10:49:21;;;;;;;8.52;1.73;;;25.60;57.80;;;;;;5110651;27;20035;-77
2022/05/16 10:51:59;;;;;;;4.93;1.35;;;25.80;57.90;;;;;;5109399;27;20058;-77
2022/05/16 10:54:28;;;;;;;5.68;1.73;;;25.90;57.50;;;;;;5108704;27;20057;-77
2022/05/16 10:57:18;;;;;;;9.23;2.42;;;26.20;57.70;;;;;;5109381;27;20422;-77
2022/05/16 11:00:14;;;;;;;4.32;1.27;;;26.40;53.80;;;;;;5108495;27;20047;-77
2022/05/16 11:03:18;;;;;;;6.40;1.50;;;26.50;55.30;;;;;;5091911;27;20039;-76
2022/05/16 11:05:46;;;;;;;6.38;1.55;;;26.60;53.50;;;;;;5092171;27;20050;-77
2022/05/16 11:08:35;;;;;;;5.97;1.80;;;26.60;55.50;;;;;;5108507;27;20172;-77
2022/05/16 11:11:27;;;;;;;6.25;1.60;;;26.50;52.70;;;;;;5108785;27;20051;-77
2022/05/16 11:14:15;;;;;;;6.25;1.30;;;26.50;52.90;;;;;;5058032;27;20059;-77
2022/05/16 11:16:40;;;;;;;4.82;1.60;;;26.40;51.70;;;;;;5108332;27;20082;-77
2022/05/16 11:19:31;;;;;;;3.78;1.33;;;26.40;53.70;;;;;;5091784;27;20082;-77
2022/05/16 11:22:15;;;;;;;5.22;1.30;;;26.40;51.80;;;;;;5108419;28;20100;-76
2022/05/16 11:25:02;;;;;;;4.80;1.40;;;26.40;50.10;;;;;;5126996;27;20501;-77
2022/05/16 11:27:34;;;;;;;6.22;1.23;;;26.40;53.20;;;;;;5109254;27;20046;-77
2022/05/16 11:30:06;;;;;;;3.28;1.15;;;26.50;53.30;;;;;;5108014;28;20083;-77
2022/05/16 11:32:44;;;;;;;;;;;26.40;52.20;;;;;;5127346;27;20082;-77
2022/05/16 11:35:19;;;;;;;4.93;1.40;;;26.30;51.30;;;;;;5108504;28;19923;-76
2022/05/16 11:38:25;;;;;;;4.00;0.90;;;26.10;52.30;;;;;;5126490;27;20466;-75
2022/05/16 11:41:00;;;;;;;6.95;1.30;;;26.10;51.80;;;;;;5078501;28;20136;-78
2022/05/16 11:43:32;;;;;;;3.45;1.30;;;26.00;53.30;;;;;;5126783;28;20043;-78
2022/05/16 11:46:04;;;;;;;;;;;25.90;53.20;;;;;;5108921;28;20059;-78
2022/05/16 11:48:52;;;;;;;6.60;1.52;;;25.80;52.80;;;;;;5091399;28;19920;-78
2022/05/16 11:51:23;;;;;;;3.65;1.13;;;25.80;52.10;;;;;;5107810;28;20051;-78
2022/05/16 11:53:53;;;;;;;8.20;1.30;;;25.80;54.00;;;;;;5108299;28;20051;-78
2022/05/16 12:02:27;;;;;;;4.13;1.67;;;25.70;53.40;;;;;;5093480;28;20146;-77
2022/05/16 12:05:07;;;;;;;2.92;1.38;;;25.70;52.30;;;;;;5126650;28;20047;-77
2022/05/16 12:07:35;;;;;;;2.47;0.93;;;25.70;53.10;;;;;;5111151;27;20593;-77
2022/05/16 12:10:10;;;;;;;6.20;1.80;;;25.70;53.30;;;;;;5112047;27;20043;-78
2022/05/16 12:12:37;;;;;;;4.47;1.92;;;25.70;53.70;;;;;;5112014;27;20370;-78
2022/05/16 12:15:29;;;;;;;8.90;1.73;;;25.70;53.70;;;;;;5112305;27;20047;-79
2022/05/16 12:18:04;;;;;;;11.25;1.77;;;25.70;53.50;;;;;;5085846;27;20137;-79
2022/05/16 12:20:37;;;;;;;4.72;1.50;;;25.70;54.60;;;;;;5111656;27;20494;-78
2022/05/16 12:23:03;;;;;;;;;;;25.80;55.10;;;;;;5112392;27;20050;-79
2022/05/16 12:25:35;;;;;;;8.73;1.40;;;25.80;54.70;;;;;;5111392;27;19926;-78
2022/05/16 12:28:13;;;;;;;;;;;25.80;55.80;;;;;;5095323;27;20123;-77
2022/05/16 12:30:43;;;;;;;3.15;1.33;;;25.90;56.40;;;;;;5112146;27;19919;-78
2022/05/16 12:33:33;;;;;;;5.57;1.90;;;26.00;56.30;;;;;;5094920;27;20055;-78
2022/05/16 12:35:59;;;;;;;4.97;1.60;;;26.00;55.50;;;;;;5130532;27;20062;-78
2022/05/16 12:38:27;;;;;;;4.97;1.63;;;25.90;56.50;;;;;;5111279;27;20510;-78
2022/05/16 12:41:39;;;;;;;5.57;1.77;;;25.90;56.50;;;;;;5111536;27;20082;-77
2022/05/16 12:45:03;;;;;;;5.55;1.48;;;25.70;56.80;;;;;;5111702;27;20595;-77
2022/05/16 12:47:46;;;;;;;6.95;2.40;;;25.60;57.30;;;;;;5056158;27;20070;-78
2022/05/16 12:50:21;;;;;;;7.18;1.48;;;25.50;56.90;;;;;;5130432;27;20051;-78
2022/05/16 12:53:20;;;;;;;7.87;1.97;;;25.30;58.30;;;;;;5112605;27;20047;-78
2022/05/16 12:56:07;;;;;;;4.70;1.67;;;25.30;59.30;;;;;;5111400;27;20043;-76
2022/05/16 12:58:50;;;;;;;6.45;2.30;;;25.10;60.30;;;;;;5094148;27;20054;-77
2022/05/16 13:01:28;;;;;;;5.22;2.00;;;25.10;62.20;;;;;;5094647;27;20512;-79
2022/05/16 13:04:31;;;;;;;8.10;2.25;;;25.10;63.40;;;;;;5110937;27;20054;-76
2022/05/16 13:07:32;;;;;;;8.57;1.95;;;25.00;67.80;;;;;;5094810;27;20053;-77
2022/05/16 13:10:09;;;;;;;10.38;2.08;;;25.00;67.00;;;;;;5111255;27;20060;-77
2022/05/16 13:12:48;;;;;;;9.25;2.10;;;25.00;67.50;;;;;;5111158;27;20047;-75
2022/05/16 13:15:46;;;;;;;6.25;2.53;;;25.00;68.20;;;;;;5110797;27;20046;-77
2022/05/16 13:18:26;;;;;;;6.47;1.77;;;25.00;68.90;;;;;;5094730;27;20059;-77
2022/05/16 13:20:56;;;;;;;3.30;1.42;;;25.00;67.80;;;;;;5110517;27;20055;-77
2022/05/16 13:23:25;;;;;;;9.00;1.98;;;25.00;68.50;;;;;;5110880;27;20123;-77
2022/05/16 13:31:40;;;;;;;5.53;1.88;;;25.10;67.40;;;;;;5069565;27;20508;-79
2022/05/16 13:34:06;;;;;;;7.55;2.20;;;25.10;69.30;;;;;;5129108;27;20039;-79
2022/05/16 13:36:32;;;;;;;6.32;1.70;;;25.20;68.90;;;;;;5110416;27;20039;-78
2022/05/16 13:39:01;;;;;;;5.70;2.17;;;25.10;68.20;;;;;;5093956;27;20478;-78
2022/05/16 13:41:30;;;;;;;6.93;2.13;;;25.10;69.20;;;;;;5093203;27;20137;-78
2022/05/16 13:43:59;;;;;;;8.32;2.42;;;25.10;68.90;;;;;;5129458;27;20440;-79
2022/05/16 13:46:27;;;;;;;6.57;2.83;;;25.10;69.80;;;;;;5092867;27;20576;-79
2022/05/16 13:48:57;;;;;;;8.43;2.60;;;25.10;70.20;;;;;;5110684;27;20107;-78